createdAt,value
2023-05-02T00:00:04.133Z,67.72
2023-05-02T00:02:31.729Z,67.84
2023-05-02T00:05:01.067Z,68.16
2023-05-02T00:07:28.782Z,68.39
2023-05-02T00:09:56.269Z,68.93
2023-05-02T00:12:23.730Z,68.88
2023-05-02T00:14:51.224Z,68.90
2023-05-02T00:17:19.615Z,69.14
2023-05-02T00:19:47.666Z,69.34
2023-05-02T00:22:16.459Z,68.89
2023-05-02T00:24:43.900Z,68.69
2023-05-02T00:27:11.404Z,69.18
2023-05-02T00:29:38.856Z,69.46
2023-05-02T00:32:06.995Z,70.61
2023-05-02T00:34:34.632Z,70.12
2023-05-02T00:37:02.093Z,69.46
2023-05-02T00:39:30.913Z,70.83
2023-05-02T00:41:58.741Z,71.16
2023-05-02T00:44:26.260Z,71.74
2023-05-02T00:46:53.836Z,71.06
2023-05-02T00:49:21.387Z,71.19
2023-05-02T00:51:48.877Z,70.74
2023-05-02T00:54:16.594Z,71.60
2023-05-02T00:56:45.588Z,70.83
2023-05-02T00:59:13.395Z,70.85
2023-05-02T01:01:51.610Z,71.06
2023-05-02T01:04:26.527Z,71.40
2023-05-02T01:07:01.433Z,71.16
2023-05-02T01:09:36.541Z,71.57
2023-05-02T01:12:07.664Z,71.96
2023-05-02T01:14:37.140Z,72.37
2023-05-02T01:17:06.312Z,72.48
2023-05-02T01:19:37.316Z,71.96
2023-05-02T01:22:07.930Z,71.95
2023-05-02T01:24:40.242Z,73.75
2023-05-02T01:27:17.112Z,73.50
2023-05-02T01:29:46.821Z,72.95
2023-05-02T01:32:16.336Z,73.50
2023-05-02T01:34:44.368Z,73.17
2023-05-02T01:37:12.987Z,74.19
2023-05-02T01:39:41.363Z,74.46
2023-05-02T01:42:08.831Z,73.39
2023-05-02T01:44:37.542Z,73.11
2023-05-02T01:47:07.514Z,73.63
2023-05-02T01:49:35.764Z,75.21
2023-05-02T01:52:05.709Z,75.69
2023-05-02T01:54:34.635Z,74.83
2023-05-02T01:57:03.768Z,74.19
2023-05-02T01:59:31.593Z,75.27
2023-05-02T02:02:00.649Z,74.57
2023-05-02T02:04:29.901Z,75.30
2023-05-02T02:07:03.673Z,75.41
2023-05-02T02:09:31.478Z,75.97
2023-05-02T02:12:04.548Z,76.61
2023-05-02T02:14:35.381Z,76.22
2023-05-02T02:17:03.689Z,76.37
2023-05-02T02:19:33.044Z,76.63
2023-05-02T02:22:01.552Z,77.33
2023-05-02T02:24:29.890Z,77.83
2023-05-02T02:26:57.584Z,78.05
2023-05-02T02:29:25.453Z,77.11
2023-05-02T02:31:52.915Z,77.43
2023-05-02T02:34:21.092Z,79.07
2023-05-02T02:36:54.808Z,78.20
2023-05-02T02:39:31.543Z,78.53
2023-05-02T02:42:04.621Z,78.29
2023-05-02T02:44:41.007Z,78.57
2023-05-02T02:47:13.161Z,78.41
2023-05-02T02:49:48.850Z,78.79
2023-05-02T02:52:23.441Z,78.79
2023-05-02T02:54:53.887Z,78.24
2023-05-02T02:57:35.727Z,80.27
2023-05-02T03:00:08.399Z,80.43
2023-05-02T03:02:36.984Z,79.59
2023-05-02T03:05:06.296Z,78.52
2023-05-02T03:07:35.106Z,79.55
2023-05-02T03:10:04.206Z,80.22
2023-05-02T03:12:32.004Z,81.84
2023-05-02T03:15:07.212Z,82.15
2023-05-02T03:17:34.677Z,82.09
2023-05-02T03:20:02.299Z,83.12
2023-05-02T03:22:29.915Z,81.92
2023-05-02T03:24:58.702Z,81.11
2023-05-02T03:27:26.215Z,81.40
2023-05-02T03:29:53.653Z,80.60
2023-05-02T03:32:21.217Z,82.13
2023-05-02T03:34:49.404Z,81.75
2023-05-02T03:37:16.900Z,80.61
2023-05-02T03:39:45.220Z,81.34
2023-05-02T03:42:14.077Z,81.49
2023-05-02T03:44:41.567Z,80.84
2023-05-02T03:47:09.173Z,80.57
2023-05-02T03:49:36.962Z,79.94
2023-05-02T03:52:04.420Z,80.77
2023-05-02T03:54:34.166Z,81.13
2023-05-02T03:57:01.686Z,80.40
2023-05-02T03:59:30.709Z,79.76
2023-05-02T04:01:58.196Z,80.12
2023-05-02T04:04:25.891Z,80.14
2023-05-02T04:06:53.382Z,78.72
2023-05-02T04:09:25.028Z,80.50
2023-05-02T04:11:52.754Z,78.98
2023-05-02T04:14:20.222Z,79.45
2023-05-02T04:16:50.598Z,80.91
2023-05-02T04:19:19.023Z,80.02
2023-05-02T04:21:46.612Z,79.11
2023-05-02T04:24:14.429Z,79.95
2023-05-02T04:26:41.976Z,79.89
2023-05-02T04:29:09.452Z,79.39
2023-05-02T04:31:37.132Z,79.51
2023-05-02T04:34:05.961Z,79.91
2023-05-02T04:36:34.032Z,79.05
2023-05-02T04:39:01.497Z,80.15
2023-05-02T04:41:29.107Z,78.66
2023-05-02T04:43:56.565Z,80.00
2023-05-02T04:46:24.012Z,79.42
2023-05-02T04:48:51.530Z,79.22
2023-05-02T04:51:20.317Z,79.25
2023-05-02T04:53:47.749Z,79.29
2023-05-02T04:56:15.194Z,78.54
2023-05-02T04:58:42.638Z,79.56
2023-05-02T05:01:10.240Z,79.29
2023-05-02T05:03:38.063Z,79.08
2023-05-02T05:06:05.838Z,79.11
2023-05-02T05:08:34.677Z,78.20
2023-05-02T05:11:02.528Z,78.17
2023-05-02T05:13:30.026Z,78.68
2023-05-02T05:15:57.542Z,77.19
2023-05-02T05:18:25.087Z,77.57
2023-05-02T05:20:52.534Z,76.78
2023-05-02T05:23:20.010Z,76.59
2023-05-02T05:25:48.965Z,76.84
2023-05-02T05:28:16.421Z,76.85
2023-05-02T05:30:43.873Z,77.39
2023-05-02T05:33:11.489Z,76.00
2023-05-02T05:35:39.042Z,74.89
2023-05-02T05:38:06.929Z,75.10
2023-05-02T05:40:34.379Z,76.29
2023-05-02T05:43:03.138Z,76.15
2023-05-02T05:45:30.585Z,75.45
2023-05-02T05:48:06.098Z,76.74
2023-05-02T05:50:33.572Z,75.79
2023-05-02T05:53:01.012Z,75.40
2023-05-02T05:55:28.690Z,74.30
2023-05-02T05:57:56.117Z,74.33
2023-05-02T06:00:24.962Z,75.03
2023-05-02T06:02:52.550Z,75.01
2023-05-02T06:05:20.087Z,74.59
2023-05-02T06:07:47.509Z,73.42
2023-05-02T06:10:15.144Z,73.18
2023-05-02T06:12:42.593Z,72.36
2023-05-02T06:15:10.719Z,71.02
2023-05-02T06:17:39.534Z,71.61
2023-05-02T06:20:08.423Z,72.14
2023-05-02T06:22:35.862Z,72.76
2023-05-02T06:25:05.151Z,72.05
2023-05-02T06:27:33.777Z,72.27
2023-05-02T06:30:01.675Z,72.31
2023-05-02T06:32:31.407Z,71.82
2023-05-02T06:35:00.252Z,71.27
2023-05-02T06:37:27.775Z,72.05
2023-05-02T06:39:55.229Z,71.44
2023-05-02T06:42:22.664Z,71.08
2023-05-02T06:44:50.139Z,71.85
2023-05-02T06:47:17.704Z,72.65
2023-05-02T06:49:45.251Z,72.44
2023-05-02T06:52:14.032Z,71.93
2023-05-02T06:54:42.358Z,71.79
2023-05-02T06:57:10.956Z,70.12
2023-05-02T06:59:38.422Z,69.14
2023-05-02T07:02:05.892Z,68.85
2023-05-02T07:04:33.455Z,68.93
2023-05-02T07:07:00.997Z,69.03
2023-05-02T07:09:42.346Z,67.84
2023-05-02T07:12:09.792Z,65.19
2023-05-02T07:14:37.267Z,64.04
2023-05-02T07:17:04.783Z,62.89
2023-05-02T07:19:32.282Z,61.99
2023-05-02T07:21:59.726Z,63.18
2023-05-02T07:24:27.321Z,62.35
2023-05-02T07:26:56.156Z,61.77
2023-05-02T07:29:23.787Z,62.08
2023-05-02T07:31:51.534Z,61.77
2023-05-02T07:34:19.026Z,62.50
2023-05-02T07:36:46.455Z,62.39
2023-05-02T07:39:14.069Z,63.08
2023-05-02T07:41:41.539Z,63.14
2023-05-02T07:44:10.326Z,63.42
2023-05-02T07:46:37.890Z,64.05
2023-05-02T07:49:05.748Z,63.44
2023-05-02T07:51:33.812Z,64.24
2023-05-02T07:54:01.838Z,64.34
2023-05-02T07:56:30.011Z,63.22
2023-05-02T07:58:57.548Z,63.89
2023-05-02T08:01:26.342Z,62.53
2023-05-02T08:03:54.073Z,63.85
2023-05-02T08:06:22.558Z,63.68
2023-05-02T08:08:50.084Z,64.35
2023-05-02T08:11:17.513Z,65.36
2023-05-02T08:13:45.015Z,64.90
2023-05-02T08:16:12.667Z,65.44
2023-05-02T08:18:42.255Z,65.88
2023-05-02T08:21:09.748Z,65.38
2023-05-02T08:23:37.651Z,63.77
2023-05-02T08:26:05.721Z,62.97
2023-05-02T08:28:33.214Z,63.26
2023-05-02T08:31:00.713Z,64.34
2023-05-02T08:33:28.201Z,65.92
2023-05-02T08:35:56.979Z,64.55
2023-05-02T08:38:24.453Z,64.55
2023-05-02T08:40:51.910Z,65.43
2023-05-02T08:43:19.395Z,65.70
2023-05-02T08:45:46.872Z,66.29
2023-05-02T08:48:16.773Z,65.90
2023-05-02T08:50:46.605Z,66.13
2023-05-02T08:53:15.546Z,65.79
2023-05-02T08:55:43.728Z,65.47
2023-05-02T08:58:14.661Z,65.03
2023-05-02T09:00:44.033Z,66.08
2023-05-02T09:03:21.348Z,65.71
2023-05-02T09:05:55.082Z,65.61
2023-05-02T09:08:24.971Z,66.09
2023-05-02T09:10:52.723Z,66.28
2023-05-02T09:13:30.613Z,67.23
2023-05-02T09:15:59.483Z,66.96
2023-05-02T09:18:29.742Z,66.62
2023-05-02T09:20:57.727Z,64.37
2023-05-02T09:23:35.133Z,63.91
2023-05-02T09:26:03.144Z,64.44
2023-05-02T09:28:41.842Z,63.31
2023-05-02T09:31:10.336Z,61.91
2023-05-02T09:33:38.461Z,61.14
2023-05-02T09:36:07.089Z,61.18
2023-05-02T09:38:35.897Z,60.67
2023-05-02T09:41:04.543Z,61.58
2023-05-02T09:43:32.860Z,61.14
2023-05-02T09:46:01.979Z,59.98
2023-05-02T09:48:30.599Z,61.24
2023-05-02T09:50:58.619Z,62.19
2023-05-02T09:53:27.660Z,63.16
2023-05-02T09:56:04.091Z,63.41
2023-05-02T09:58:32.037Z,63.03
2023-05-02T10:00:59.854Z,61.17
2023-05-02T10:03:28.932Z,61.02
2023-05-02T10:05:57.356Z,60.92
2023-05-02T10:08:28.448Z,62.07
2023-05-02T10:10:57.172Z,60.23
2023-05-02T10:13:32.006Z,60.37
2023-05-02T10:16:01.394Z,58.65
2023-05-02T10:18:31.903Z,58.36
2023-05-02T10:21:00.751Z,56.71
2023-05-02T10:23:29.201Z,58.16
2023-05-02T10:26:00.032Z,56.50
2023-05-02T10:28:29.997Z,56.41
2023-05-02T10:30:58.339Z,57.34
2023-05-02T10:33:26.122Z,57.00
2023-05-02T10:35:53.771Z,56.09
2023-05-02T10:38:23.354Z,55.69
2023-05-02T10:40:56.059Z,56.24
2023-05-02T10:43:25.749Z,56.28
2023-05-02T10:45:55.654Z,57.19
2023-05-02T10:48:24.898Z,56.13
2023-05-02T10:50:53.800Z,55.55
2023-05-02T10:53:28.708Z,55.49
2023-05-02T10:56:18.649Z,55.01
2023-05-02T10:58:46.936Z,54.81
2023-05-02T11:01:39.652Z,55.48
2023-05-02T11:04:08.187Z,52.45
2023-05-02T11:06:36.869Z,52.00
2023-05-02T11:09:35.290Z,53.43
2023-05-02T11:12:04.848Z,53.41
2023-05-02T11:14:49.562Z,52.82
2023-05-02T11:17:19.073Z,52.11
2023-05-02T11:20:29.029Z,52.46
2023-05-02T11:23:02.337Z,52.98
2023-05-02T11:25:39.990Z,53.32
2023-05-02T11:28:09.417Z,51.40
2023-05-02T11:30:44.606Z,51.60
2023-05-02T11:33:17.456Z,52.95
2023-05-02T11:35:46.637Z,49.83
2023-05-02T11:38:16.275Z,49.13
2023-05-02T11:40:58.476Z,50.35
2023-05-02T11:43:29.365Z,49.51
2023-05-02T11:46:00.058Z,50.71
2023-05-02T11:48:29.149Z,50.10
2023-05-02T11:50:58.206Z,48.07
2023-05-02T11:53:27.693Z,46.97
2023-05-02T11:55:57.253Z,48.65
2023-05-02T11:58:26.112Z,47.45
2023-05-02T12:00:54.425Z,46.87
2023-05-02T12:03:23.417Z,46.35
2023-05-02T12:05:52.503Z,48.66
2023-05-02T12:08:25.038Z,48.10
2023-05-02T12:10:54.115Z,47.53
2023-05-02T12:13:23.348Z,48.04
2023-05-02T12:15:51.705Z,48.13
2023-05-02T12:18:22.078Z,49.16
2023-05-02T12:20:49.834Z,49.16
2023-05-02T12:23:18.977Z,47.49
2023-05-02T12:25:46.485Z,50.29
2023-05-02T12:28:14.026Z,51.86
2023-05-02T12:30:41.777Z,52.66
2023-05-02T12:33:09.666Z,50.36
2023-05-02T12:35:37.378Z,50.94
2023-05-02T12:38:13.336Z,52.24
2023-05-02T12:40:48.136Z,53.20
2023-05-02T12:43:15.580Z,54.05
2023-05-02T12:45:43.694Z,54.61
2023-05-02T12:48:25.060Z,56.41
2023-05-02T12:50:53.016Z,54.08
2023-05-02T12:53:41.975Z,53.26
2023-05-02T12:56:13.947Z,52.51
2023-05-02T12:58:43.558Z,51.00
2023-05-02T13:01:11.290Z,48.59
2023-05-02T13:03:39.276Z,48.52
2023-05-02T13:06:07.259Z,48.40
2023-05-02T13:08:35.282Z,49.09
2023-05-02T13:11:03.870Z,47.50
2023-05-02T13:13:33.416Z,47.58
2023-05-02T13:16:00.995Z,48.83
2023-05-02T13:18:28.908Z,48.96
2023-05-02T13:20:56.457Z,48.30
2023-05-02T13:23:23.888Z,48.41
2023-05-02T13:25:51.329Z,48.26
2023-05-02T13:28:18.866Z,49.06
2023-05-02T13:30:47.741Z,46.84
2023-05-02T13:33:15.357Z,46.38
2023-05-02T13:35:42.955Z,46.41
2023-05-02T13:38:10.461Z,45.91
2023-05-02T13:40:37.959Z,45.89
2023-05-02T13:43:05.656Z,45.74
2023-05-02T13:45:33.524Z,46.47
2023-05-02T13:48:02.481Z,48.84
2023-05-02T13:50:29.970Z,48.00
2023-05-02T13:52:57.413Z,50.48
2023-05-02T13:55:24.930Z,46.81
2023-05-02T13:57:52.392Z,46.80
2023-05-02T14:00:20.988Z,47.33
2023-05-02T14:02:49.153Z,47.78
2023-05-02T14:05:18.023Z,48.40
2023-05-02T14:07:45.493Z,47.43
2023-05-02T14:10:12.963Z,46.91
2023-05-02T14:12:40.622Z,45.57
2023-05-02T14:15:09.686Z,45.89
2023-05-02T14:17:37.137Z,45.57
2023-05-02T14:20:05.799Z,45.32
2023-05-02T14:22:34.662Z,45.56
2023-05-02T14:25:02.188Z,45.19
2023-05-02T14:27:29.627Z,45.03
2023-05-02T14:29:57.169Z,45.64
2023-05-02T14:32:24.599Z,45.30
2023-05-02T14:34:52.051Z,45.52
2023-05-02T14:37:19.507Z,44.98
2023-05-02T14:39:51.634Z,46.38
2023-05-02T14:42:20.293Z,45.10
2023-05-02T14:44:47.721Z,45.17
2023-05-02T14:47:15.267Z,43.83
2023-05-02T14:49:42.864Z,43.58
2023-05-02T14:52:10.374Z,44.09
2023-05-02T14:54:37.878Z,44.56
2023-05-02T14:57:07.914Z,44.90
2023-05-02T14:59:35.874Z,44.66
2023-05-02T15:02:03.465Z,44.46
2023-05-02T15:04:31.194Z,46.36
2023-05-02T15:06:58.900Z,46.12
2023-05-02T15:09:26.924Z,45.19
2023-05-02T15:11:54.508Z,45.50
2023-05-02T15:14:23.447Z,45.03
2023-05-02T15:16:51.360Z,45.81
2023-05-02T15:19:18.925Z,46.30
2023-05-02T15:21:46.380Z,45.33
2023-05-02T15:24:13.873Z,46.45
2023-05-02T15:26:41.344Z,45.34
2023-05-02T15:29:08.851Z,47.47
2023-05-02T15:31:38.094Z,47.43
2023-05-02T15:34:05.656Z,45.57
2023-05-02T15:36:37.114Z,45.29
2023-05-02T15:39:04.620Z,45.38
2023-05-02T15:41:32.099Z,45.04
2023-05-02T15:44:00.013Z,45.07
2023-05-02T15:46:27.736Z,45.55
2023-05-02T15:48:56.778Z,45.59
2023-05-02T15:51:24.246Z,47.14
2023-05-02T15:53:52.615Z,46.41
2023-05-02T15:56:21.118Z,46.05
2023-05-02T15:58:48.767Z,46.35
2023-05-02T16:01:16.294Z,46.13
2023-05-02T16:03:44.011Z,45.45
2023-05-02T16:06:12.875Z,46.32
2023-05-02T16:08:40.300Z,44.82
2023-05-02T16:11:07.899Z,45.76
2023-05-02T16:13:35.452Z,46.10
2023-05-02T16:16:02.983Z,46.29
2023-05-02T16:18:31.160Z,45.77
2023-05-02T16:20:59.367Z,45.96
2023-05-02T16:23:28.536Z,45.91
2023-05-02T16:26:40.648Z,44.35
2023-05-02T16:29:08.117Z,44.54
2023-05-02T16:31:35.855Z,46.89
2023-05-02T16:34:03.930Z,45.01
2023-05-02T16:36:33.867Z,45.39
2023-05-02T16:39:07.952Z,44.65
2023-05-02T16:41:35.749Z,43.96
2023-05-02T16:44:03.249Z,43.91
2023-05-02T16:46:32.243Z,43.77
2023-05-02T16:48:59.749Z,44.30
2023-05-02T16:51:27.960Z,44.74
2023-05-02T16:53:55.584Z,45.23
2023-05-02T16:56:24.385Z,44.76
2023-05-02T16:58:51.816Z,45.23
2023-05-02T17:01:19.321Z,45.57
2023-05-02T17:03:46.949Z,44.85
2023-05-02T17:06:14.442Z,45.30
2023-05-02T17:08:42.016Z,44.26
2023-05-02T17:11:09.449Z,43.88
2023-05-02T17:13:38.485Z,43.31
2023-05-02T17:16:08.160Z,43.60
2023-05-02T17:18:35.820Z,43.51
2023-05-02T17:21:04.045Z,42.34
2023-05-02T17:23:31.739Z,42.08
2023-05-02T17:25:59.460Z,43.08
2023-05-02T17:28:26.981Z,43.58
2023-05-02T17:30:56.051Z,44.11
2023-05-02T17:33:23.573Z,44.75
2023-05-02T17:35:51.258Z,44.77
2023-05-02T17:38:18.700Z,45.12
2023-05-02T17:40:46.245Z,45.29
2023-05-02T17:43:13.713Z,45.66
2023-05-02T17:45:41.568Z,45.34
2023-05-02T17:48:11.091Z,45.37
2023-05-02T17:50:38.749Z,45.45
2023-05-02T17:53:06.561Z,45.16
2023-05-02T17:55:37.184Z,45.93
2023-05-02T17:58:04.719Z,45.75
2023-05-02T18:00:32.245Z,45.67
2023-05-02T18:02:59.810Z,45.95
2023-05-02T18:05:29.312Z,46.62
2023-05-02T18:07:58.707Z,46.72
2023-05-02T18:10:26.257Z,47.25
2023-05-02T18:12:53.759Z,47.85
2023-05-02T18:15:21.891Z,47.92
2023-05-02T18:17:49.409Z,48.20
2023-05-02T18:20:17.017Z,48.73
2023-05-02T18:22:46.113Z,49.72
2023-05-02T18:25:13.568Z,51.30
2023-05-02T18:27:41.046Z,55.71
2023-05-02T18:30:09.676Z,57.15
2023-05-02T18:32:37.210Z,56.97
2023-05-02T18:35:04.981Z,58.04
2023-05-02T18:37:32.465Z,58.77
2023-05-02T18:40:02.874Z,59.33
2023-05-02T18:42:30.367Z,59.39
2023-05-02T18:44:57.820Z,59.18
2023-05-02T18:47:25.396Z,59.47
2023-05-02T18:49:56.358Z,59.01
2023-05-02T18:52:24.567Z,59.03
2023-05-02T18:54:51.990Z,59.64
2023-05-02T18:57:21.459Z,59.64
2023-05-02T18:59:48.942Z,59.95
2023-05-02T19:02:16.438Z,60.09
2023-05-02T19:04:43.974Z,60.17
2023-05-02T19:07:11.393Z,60.20
2023-05-02T19:09:38.832Z,60.37
2023-05-02T19:12:06.494Z,60.14
2023-05-02T19:14:35.840Z,59.79
2023-05-02T19:17:05.540Z,60.21
2023-05-02T19:19:33.179Z,60.06
2023-05-02T19:22:01.125Z,60.21
2023-05-02T19:24:28.608Z,60.18
2023-05-02T19:26:56.418Z,60.12
2023-05-02T19:29:23.966Z,59.98
2023-05-02T19:31:52.811Z,59.00
2023-05-02T19:34:20.773Z,58.84
2023-05-02T19:36:48.203Z,58.03
2023-05-02T19:39:16.194Z,58.27
2023-05-02T19:41:44.135Z,56.93
2023-05-02T19:44:11.653Z,57.07
2023-05-02T19:46:39.193Z,56.28
2023-05-02T19:49:08.250Z,56.48
2023-05-02T19:51:35.694Z,56.65
2023-05-02T19:54:03.179Z,56.06
2023-05-02T19:56:30.690Z,55.46
2023-05-02T19:58:58.603Z,55.75
2023-05-02T20:01:26.652Z,56.06
2023-05-02T20:03:54.793Z,55.37
2023-05-02T20:06:23.758Z,55.45
2023-05-02T20:08:52.727Z,55.96
2023-05-02T20:11:20.225Z,56.13
2023-05-02T20:13:47.819Z,55.92
2023-05-02T20:16:16.032Z,56.45
2023-05-02T20:18:43.523Z,56.09
2023-05-02T20:21:11.079Z,56.62
2023-05-02T20:23:43.154Z,57.02
2023-05-02T20:26:10.863Z,56.98
2023-05-02T20:28:52.094Z,57.13
2023-05-02T20:31:19.551Z,57.40
2023-05-02T20:33:47.120Z,57.58
2023-05-02T20:36:15.633Z,56.92
2023-05-02T20:38:44.971Z,57.96
2023-05-02T20:41:13.809Z,58.31
2023-05-02T20:43:44.589Z,58.36
2023-05-02T20:46:12.993Z,58.63
2023-05-02T20:48:40.588Z,58.19
2023-05-02T20:51:08.636Z,59.12
2023-05-02T20:53:36.629Z,58.38
2023-05-02T20:56:06.052Z,58.02
2023-05-02T20:58:33.518Z,58.41
2023-05-02T21:01:01.051Z,59.12
2023-05-02T21:03:29.076Z,59.45
2023-05-02T21:05:59.433Z,59.24
2023-05-02T21:08:26.888Z,59.06
2023-05-02T21:10:54.624Z,58.92
2023-05-02T21:13:23.762Z,59.93
2023-05-02T21:15:51.276Z,59.50
2023-05-02T21:18:18.803Z,59.34
2023-05-02T21:20:49.076Z,60.95
2023-05-02T21:23:16.536Z,60.16
2023-05-02T21:25:44.130Z,60.08
2023-05-02T21:28:12.352Z,60.33
2023-05-02T21:30:41.281Z,60.33
2023-05-02T21:33:09.192Z,60.93
2023-05-02T21:35:36.861Z,60.53
2023-05-02T21:38:04.307Z,60.68
2023-05-02T21:40:32.304Z,60.17
2023-05-02T21:42:59.734Z,61.52
2023-05-02T21:45:27.641Z,60.96
2023-05-02T21:47:57.042Z,60.64
2023-05-02T21:50:24.744Z,60.20
2023-05-02T21:52:52.184Z,60.23
2023-05-02T21:55:19.663Z,60.52
2023-05-02T21:57:47.188Z,60.93
2023-05-02T22:00:15.307Z,60.29
2023-05-02T22:02:42.956Z,59.81
2023-05-02T22:05:13.608Z,60.00
2023-05-02T22:07:41.644Z,61.00
2023-05-02T22:10:11.518Z,60.36
2023-05-02T22:12:38.937Z,60.54
2023-05-02T22:15:08.255Z,60.06
2023-05-02T22:17:36.087Z,60.64
2023-05-02T22:20:03.969Z,60.85
2023-05-02T22:22:32.946Z,59.99
2023-05-02T22:25:02.688Z,61.20
2023-05-02T22:27:30.100Z,60.26
2023-05-02T22:29:57.542Z,61.26
2023-05-02T22:32:25.604Z,60.84
2023-05-02T22:34:53.137Z,60.88
2023-05-02T22:37:20.715Z,61.25
2023-05-02T22:39:49.529Z,61.52
2023-05-02T22:42:16.951Z,61.71
2023-05-02T22:44:53.638Z,62.05
2023-05-02T22:47:22.583Z,61.80
2023-05-02T22:49:51.006Z,61.96
2023-05-02T22:52:20.452Z,61.93
2023-05-02T22:54:49.381Z,62.39
2023-05-02T22:57:16.861Z,62.69
2023-05-02T22:59:44.334Z,63.01
2023-05-02T23:02:12.226Z,62.44
2023-05-02T23:04:39.721Z,62.97
2023-05-02T23:07:07.151Z,62.97
2023-05-02T23:09:34.658Z,63.77
2023-05-02T23:12:05.673Z,63.26
2023-05-02T23:14:33.282Z,63.67
2023-05-02T23:17:02.113Z,63.55
2023-05-02T23:19:30.019Z,64.01
2023-05-02T23:21:58.010Z,63.90
2023-05-02T23:24:25.531Z,63.57
2023-05-02T23:26:52.980Z,64.53
2023-05-02T23:29:21.769Z,64.28
2023-05-02T23:31:50.443Z,64.25
2023-05-02T23:34:17.987Z,64.52
2023-05-02T23:36:45.503Z,64.58
2023-05-02T23:39:13.375Z,64.56
2023-05-02T23:41:40.848Z,64.30
2023-05-02T23:44:08.269Z,64.10
2023-05-02T23:46:37.091Z,63.69
2023-05-02T23:49:04.573Z,64.65
2023-05-02T23:51:32.693Z,64.44
2023-05-02T23:54:00.182Z,64.19
2023-05-02T23:56:27.633Z,64.48
2023-05-02T23:58:57.224Z,64.55
